Time;durP1;ratioP1;P1;durP2;ratioP2;P2;SDS_P1;SDS_P2;PMS_P1;PMS_P2;Temp;Humidity;BMP_temperature;BMP_pressure;BME280_temperature;BME280_humidity;BME280_pressure;Samples;Min_cycle;Max_cycle;Signal;HPM_P1;HPM_P2
2023/06/29 00:00:40;;;;;;;;;;;;;;;25.32;50.77;100603.06;4848933;29;6760;-72
2023/06/29 00:03:06;;;;;;;;;;;;;;;25.31;50.83;100598.69;4850123;29;7081;-73
2023/06/29 00:05:32;;;;;;;;;;;;;;;25.29;50.81;100605.69;4857968;29;7330;-73
2023/06/29 00:07:59;;;;;;;;;;;;;;;25.27;50.82;100596.13;4844047;29;6811;-72
2023/06/29 00:10:25;;;;;;;;;;;;;;;25.26;50.80;100597.84;4828780;29;6888;-72
2023/06/29 00:12:52;;;;;;;;;;;;;;;25.24;51.29;100591.78;4852072;29;6793;-73
2023/06/29 00:15:18;;;;;;;;;;;;;;;25.23;51.02;100582.16;4855909;29;6804;-73
2023/06/29 00:17:47;;;;;;;;;;;;;;;25.22;50.99;100589.16;4835254;29;7945;-72
2023/06/29 00:20:13;;;;;;;;;;;;;;;25.21;50.93;100591.81;4848883;29;6952;-73
2023/06/29 00:22:47;;;;;;;;;;;;;;;25.16;50.99;100583.97;4825494;29;7262;-72
2023/06/29 00:25:14;;;;;;;;;;;;;;;25.15;51.36;100587.47;4848672;29;6884;-73
2023/06/29 00:27:40;;;;;;;;;;;;;;;25.11;51.53;100580.53;4862951;29;7428;-72
2023/06/29 00:30:07;;;;;;;;;;;;;;;25.09;51.56;100571.81;4853430;29;6769;-73
2023/06/29 00:32:32;;;;;;;;;;;;;;;25.07;51.29;100569.19;4848899;29;6785;-73
2023/06/29 00:34:58;;;;;;;;;;;;;;;25.06;51.53;100566.56;4852141;29;7000;-72
2023/06/29 00:37:24;;;;;;;;;;;;;;;25.03;51.57;100564.88;4836038;29;8433;-72
2023/06/29 00:39:50;;;;;;;;;;;;;;;25.01;51.71;100569.25;4849995;29;6788;-74
2023/06/29 00:42:16;;;;;;;;;;;;;;;24.99;51.62;100571.00;4852580;29;6773;-73
2023/06/29 00:44:41;;;;;;;;;;;;;;;25.00;51.83;100572.75;4851210;29;6768;-73
2023/06/29 00:47:08;;;;;;;;;;;;;;;25.01;51.82;100574.47;4849851;29;6784;-73
2023/06/29 00:49:34;;;;;;;;;;;;;;;25.02;51.74;100570.13;4855313;29;7046;-72
2023/06/29 00:52:00;;;;;;;;;;;;;;;25.00;51.88;100572.75;4859795;29;7006;-72
2023/06/29 00:54:26;;;;;;;;;;;;;;;24.94;52.40;100565.81;4855678;29;6777;-72
2023/06/29 00:56:52;;;;;;;;;;;;;;;24.91;52.08;100564.97;4837535;29;7244;-73
2023/06/29 00:59:18;;;;;;;;;;;;;;;24.88;52.71;100571.13;4855879;29;7210;-72
2023/06/29 01:01:45;;;;;;;;;;;;;;;24.88;52.68;100567.63;4871709;29;6978;-72
2023/06/29 01:04:22;;;;;;;;;;;;;;;24.86;52.57;100565.00;4854419;29;6809;-72
2023/06/29 01:07:30;;;;;;;;;;;;;;;24.87;53.03;100565.88;4851743;29;6881;-73
2023/06/29 01:09:58;;;;;;;;;;;;;;;24.88;52.98;100570.25;4852339;29;6813;-72
2023/06/29 01:12:26;;;;;;;;;;;;;;;24.88;52.83;100573.75;4850343;29;6978;-72
2023/06/29 01:14:55;;;;;;;;;;;;;;;24.88;53.11;100559.75;4851957;29;6874;-72
2023/06/29 01:17:25;;;;;;;;;;;;;;;24.89;53.10;100569.34;4873874;29;8114;-73
2023/06/29 01:19:52;;;;;;;;;;;;;;;24.90;53.05;100552.75;4869962;29;7067;-73
2023/06/29 01:22:29;;;;;;;;;;;;;;;24.92;52.60;100557.09;4850646;29;6956;-72
2023/06/29 01:24:56;;;;;;;;;;;;;;;24.94;52.81;100559.72;4864198;29;7059;-73
2023/06/29 01:27:21;;;;;;;;;;;;;;;24.96;53.07;100555.31;4849330;29;7288;-73
2023/06/29 01:29:47;;;;;;;;;;;;;;;24.99;53.37;100549.19;4833150;29;7401;-72
2023/06/29 01:32:14;;;;;;;;;;;;;;;24.99;52.77;100542.19;4839817;29;6869;-73
2023/06/29 01:34:40;;;;;;;;;;;;;;;25.00;53.09;100551.78;4869297;29;6853;-73
2023/06/29 01:37:21;;;;;;;;;;;;;;;24.99;52.78;100543.94;4865409;29;6990;-72
2023/06/29 01:40:01;;;;;;;;;;;;;;;24.95;52.94;100545.72;4870636;29;7078;-75
2023/06/29 01:42:31;;;;;;;;;;;;;;;24.91;52.69;100536.13;4853164;29;6812;-73
2023/06/29 01:45:00;;;;;;;;;;;;;;;24.90;53.24;100535.28;4849083;29;6941;-72
2023/06/29 01:47:27;;;;;;;;;;;;;;;24.91;53.17;100534.41;4867601;29;6825;-73
2023/06/29 01:49:53;;;;;;;;;;;;;;;24.90;52.80;100537.91;4869178;29;6830;-73
2023/06/29 01:52:19;;;;;;;;;;;;;;;24.86;53.29;100533.56;4866617;29;6796;-73
2023/06/29 01:54:44;;;;;;;;;;;;;;;24.84;53.43;100532.72;4844451;29;6903;-72
2023/06/29 01:57:12;;;;;;;;;;;;;;;24.81;52.92;100524.88;4835799;29;7139;-74
2023/06/29 01:59:39;;;;;;;;;;;;;;;24.81;53.18;100538.00;4864246;29;6816;-73
2023/06/29 02:02:06;;;;;;;;;;;;;;;24.81;53.02;100530.97;4848468;29;6833;-73
2023/06/29 02:04:33;;;;;;;;;;;;;;;24.85;53.53;100528.34;4848503;29;6934;-73
2023/06/29 02:07:00;;;;;;;;;;;;;;;24.85;53.26;100531.81;4850668;29;6921;-73
2023/06/29 02:09:26;;;;;;;;;;;;;;;24.85;52.77;100525.72;4867110;29;6793;-73
2023/06/29 02:11:52;;;;;;;;;;;;;;;24.85;53.37;100523.09;4861784;29;7305;-72
2023/06/29 02:14:17;;;;;;;;;;;;;;;24.85;52.97;100525.72;4864948;29;6848;-73
2023/06/29 02:16:46;;;;;;;;;;;;;;;24.84;53.19;100527.47;4847893;29;6960;-73
2023/06/29 02:19:12;;;;;;;;;;;;;;;24.84;52.83;100514.34;4866266;29;6800;-73
2023/06/29 02:21:37;;;;;;;;;;;;;;;24.84;53.02;100514.34;4847499;29;6776;-72
2023/06/29 02:24:04;;;;;;;;;;;;;;;24.87;52.82;100518.72;4868631;29;6917;-73
2023/06/29 02:26:29;;;;;;;;;;;;;;;24.87;52.79;100513.47;4848406;29;7230;-73
2023/06/29 02:28:55;;;;;;;;;;;;;;;24.88;52.70;100504.72;4850454;29;6996;-73
2023/06/29 02:31:20;;;;;;;;;;;;;;;24.88;53.30;100508.22;4847532;29;6849;-73
2023/06/29 02:33:47;;;;;;;;;;;;;;;24.90;52.74;100509.06;4867606;29;6901;-72
2023/06/29 02:36:12;;;;;;;;;;;;;;;24.91;53.29;100500.31;4869471;29;7260;-73
2023/06/29 02:38:38;;;;;;;;;;;;;;;24.92;52.81;100491.56;4846790;29;6780;-74
2023/06/29 02:41:04;;;;;;;;;;;;;;;24.94;53.13;100495.03;4849076;29;6953;-72
2023/06/29 02:43:30;;;;;;;;;;;;;;;24.95;52.76;100495.91;4849513;29;6840;-75
2023/06/29 02:45:56;;;;;;;;;;;;;;;24.94;53.15;100496.81;4847889;29;6876;-73
2023/06/29 02:48:21;;;;;;;;;;;;;;;24.92;53.36;100494.19;4865679;29;7448;-73
2023/06/29 02:50:47;;;;;;;;;;;;;;;24.92;53.58;100493.34;4831484;29;6964;-73
2023/06/29 02:53:16;;;;;;;;;;;;;;;24.91;53.39;100495.06;4848467;29;6792;-72
2023/06/29 02:55:42;;;;;;;;;;;;;;;24.94;53.52;100494.19;4844688;29;6988;-73
2023/06/29 02:58:08;;;;;;;;;;;;;;;24.95;53.14;100485.44;4836854;29;7000;-73
2023/06/29 03:00:33;;;;;;;;;;;;;;;24.95;53.28;100485.44;4858118;29;6772;-70
2023/06/29 03:02:59;;;;;;;;;;;;;;;24.93;53.30;100490.69;4832011;29;7023;-70
2023/06/29 03:05:24;;;;;;;;;;;;;;;24.92;53.11;100488.94;4828502;29;7255;-69
2023/06/29 03:07:50;;;;;;;;;;;;;;;24.91;53.08;100483.72;4842807;29;6780;-70
2023/06/29 03:10:16;;;;;;;;;;;;;;;24.90;53.16;100487.22;4837423;29;7103;-71
2023/06/29 03:12:42;;;;;;;;;;;;;;;24.90;53.71;100481.97;4858126;29;6789;-70
2023/06/29 03:15:08;;;;;;;;;;;;;;;24.92;53.44;100485.47;4837655;29;6777;-71
2023/06/29 03:17:34;;;;;;;;;;;;;;;24.90;53.58;100484.59;4842573;29;6969;-71
2023/06/29 03:20:00;;;;;;;;;;;;;;;24.87;53.29;100487.25;4857979;29;6850;-69
2023/06/29 03:22:26;;;;;;;;;;;;;;;24.83;53.52;100478.56;4831282;29;6773;-69
2023/06/29 03:24:52;;;;;;;;;;;;;;;24.78;53.65;100470.75;4848163;29;6845;-70
2023/06/29 03:27:19;;;;;;;;;;;;;;;24.77;53.46;100486.44;4838370;29;7320;-72
2023/06/29 03:29:48;;;;;;;;;;;;;;;24.76;53.95;100477.72;4842370;29;6875;-70
2023/06/29 03:32:14;;;;;;;;;;;;;;;24.77;54.05;100475.94;4840163;29;6821;-70
2023/06/29 03:34:40;;;;;;;;;;;;;;;24.79;54.22;100474.25;4837087;29;6765;-74
2023/06/29 03:37:05;;;;;;;;;;;;;;;24.80;53.79;100474.22;4840082;29;7424;-73
2023/06/29 03:39:31;;;;;;;;;;;;;;;24.81;53.53;100478.56;4857294;29;7112;-74
2023/06/29 03:41:57;;;;;;;;;;;;;;;24.84;53.94;100482.06;4838574;29;6789;-69
2023/06/29 03:44:22;;;;;;;;;;;;;;;24.84;53.44;100477.66;4840403;29;7788;-70
2023/06/29 03:46:48;;;;;;;;;;;;;;;24.82;53.50;100469.84;4840020;29;6768;-70
2023/06/29 03:49:13;;;;;;;;;;;;;;;24.81;53.62;100475.94;4842252;29;6828;-70
2023/06/29 03:51:39;;;;;;;;;;;;;;;24.78;53.95;100478.59;4857359;29;6780;-70
2023/06/29 03:54:05;;;;;;;;;;;;;;;24.75;53.91;100473.38;4823499;29;6951;-70
2023/06/29 03:56:31;;;;;;;;;;;;;;;24.74;53.90;100478.63;4838214;29;6971;-70
2023/06/29 03:58:57;;;;;;;;;;;;;;;24.73;53.64;100469.91;4844576;29;6816;-71
2023/06/29 04:01:23;;;;;;;;;;;;;;;24.74;54.25;100471.63;4840759;29;6785;-71
2023/06/29 04:03:50;;;;;;;;;;;;;;;24.76;53.69;100475.09;4842172;29;6970;-73
2023/06/29 04:06:15;;;;;;;;;;;;;;;24.80;53.50;100471.59;4851244;29;7809;-73
2023/06/29 04:08:41;;;;;;;;;;;;;;;24.82;53.92;100472.47;4848826;29;6883;-73
2023/06/29 04:11:08;;;;;;;;;;;;;;;24.81;53.64;100473.31;4865179;29;6782;-72
2023/06/29 04:13:33;;;;;;;;;;;;;;;24.81;54.06;100470.69;4834588;29;7147;-72
2023/06/29 04:15:59;;;;;;;;;;;;;;;24.82;53.84;100472.47;4867229;29;7443;-72
2023/06/29 04:18:25;;;;;;;;;;;;;;;24.85;53.55;100462.81;4852109;29;6792;-75
2023/06/29 04:20:51;;;;;;;;;;;;;;;24.87;53.71;100466.28;4853935;29;7194;-76
2023/06/29 04:23:17;;;;;;;;;;;;;;;24.89;53.83;100459.28;4848455;29;6784;-72
2023/06/29 04:25:43;;;;;;;;;;;;;;;24.91;53.24;100462.75;4857118;29;6981;-72
2023/06/29 04:28:10;;;;;;;;;;;;;;;24.93;53.78;100453.13;4851012;29;6773;-73
2023/06/29 04:30:36;;;;;;;;;;;;;;;24.95;53.76;100457.44;4847684;29;6805;-72
2023/06/29 04:33:09;;;;;;;;;;;;;;;24.99;53.82;100453.03;4842893;29;6999;-72
2023/06/29 04:35:39;;;;;;;;;;;;;;;25.04;53.80;100455.63;4848726;29;7071;-73
2023/06/29 04:38:06;;;;;;;;;;;;;;;25.08;53.48;100450.31;4866382;29;6973;-74
2023/06/29 04:40:32;;;;;;;;;;;;;;;25.16;53.22;100457.25;4852513;29;6808;-73
2023/06/29 04:42:57;;;;;;;;;;;;;;;25.18;53.50;100456.34;4848890;29;6769;-73
2023/06/29 04:45:24;;;;;;;;;;;;;;;25.21;53.36;100448.44;4834079;29;7316;-73
2023/06/29 04:47:50;;;;;;;;;;;;;;;25.24;52.92;100452.78;4849590;29;6796;-73
2023/06/29 04:50:15;;;;;;;;;;;;;;;25.27;53.46;100449.25;4851668;29;6832;-72
2023/06/29 04:52:42;;;;;;;;;;;;;;;25.29;53.23;100448.31;4851123;29;6815;-74
2023/06/29 04:55:09;;;;;;;;;;;;;;;25.32;53.29;100448.31;4852290;29;6997;-74
2023/06/29 04:57:36;;;;;;;;;;;;;;;25.36;52.90;100444.75;4858798;29;6801;-73
2023/06/29 05:00:07;;;;;;;;;;;;;;;25.40;52.69;100450.81;4874222;29;7265;-73
2023/06/29 05:02:33;;;;;;;;;;;;;;;25.44;52.86;100451.66;4850397;29;6868;-73
2023/06/29 05:04:58;;;;;;;;;;;;;;;25.48;52.96;100448.97;4836384;29;6845;-73
2023/06/29 05:07:24;;;;;;;;;;;;;;;25.53;52.63;100446.31;4850646;29;6761;-73
2023/06/29 05:09:49;;;;;;;;;;;;;;;25.58;52.63;100452.34;4850340;29;6928;-74
2023/06/29 05:12:16;;;;;;;;;;;;;;;25.62;52.52;100446.19;4850716;29;6777;-73
2023/06/29 05:14:41;;;;;;;;;;;;;;;25.66;52.40;100447.03;4850142;29;7026;-73
2023/06/29 05:17:07;;;;;;;;;;;;;;;25.69;52.19;100443.47;4851662;29;6789;-73
2023/06/29 05:19:34;;;;;;;;;;;;;;;25.71;52.11;100439.09;4850527;29;6951;-73
2023/06/29 05:22:00;;;;;;;;;;;;;;;25.71;51.82;100445.19;4849111;29;7066;-73
2023/06/29 05:24:28;;;;;;;;;;;;;;;25.74;52.27;100439.03;4849116;29;6844;-73
2023/06/29 05:26:54;;;;;;;;;;;;;;;25.78;52.40;100438.97;4848519;29;6850;-74
2023/06/29 05:29:20;;;;;;;;;;;;;;;25.86;52.30;100444.09;4847400;29;6952;-73
2023/06/29 05:31:45;;;;;;;;;;;;;;;25.94;52.02;100441.38;4870305;29;6878;-72
2023/06/29 05:34:11;;;;;;;;;;;;;;;26.02;51.96;100434.22;4851339;29;6776;-73
2023/06/29 05:36:36;;;;;;;;;;;;;;;26.12;51.96;100436.69;4862487;29;6784;-74
2023/06/29 05:39:03;;;;;;;;;;;;;;;26.22;51.99;100434.84;4853026;29;7230;-73
2023/06/29 05:41:30;;;;;;;;;;;;;;;26.31;51.58;100435.53;4848247;29;6868;-73
2023/06/29 05:43:56;;;;;;;;;;;;;;;26.39;51.66;100439.78;4847669;29;6956;-73
2023/06/29 05:46:22;;;;;;;;;;;;;;;26.45;51.60;100437.91;4847653;29;6848;-73
2023/06/29 05:48:47;;;;;;;;;;;;;;;26.52;51.42;100443.06;4851620;29;6805;-74
2023/06/29 05:51:13;;;;;;;;;;;;;;;26.55;51.14;100437.75;4852375;29;6987;-74
2023/06/29 05:53:39;;;;;;;;;;;;;;;26.56;51.02;100439.53;4849456;29;6820;-73
2023/06/29 05:56:04;;;;;;;;;;;;;;;26.56;50.82;100440.38;4848579;29;6785;-73
2023/06/29 05:58:30;;;;;;;;;;;;;;;26.55;51.00;100437.75;4836458;29;7258;-73
2023/06/29 06:00:56;;;;;;;;;;;;;;;26.50;51.00;100435.22;4844084;29;6781;-74
2023/06/29 06:03:22;;;;;;;;;;;;;;;26.48;50.67;100437.88;4832605;29;7367;-74
2023/06/29 06:05:48;;;;;;;;;;;;;;;26.44;50.55;100435.34;4849042;29;6801;-73
2023/06/29 06:08:13;;;;;;;;;;;;;;;26.40;50.76;100441.53;4828951;29;7031;-74
2023/06/29 06:10:39;;;;;;;;;;;;;;;26.34;50.87;100435.50;4848811;29;7411;-73
2023/06/29 06:13:05;;;;;;;;;;;;;;;26.33;51.22;100432.88;4845793;29;7177;-73
2023/06/29 06:15:31;;;;;;;;;;;;;;;26.34;50.94;100439.88;4846614;29;6844;-73
2023/06/29 06:17:56;;;;;;;;;;;;;;;26.33;51.24;100440.78;4834686;29;8381;-72
2023/06/29 06:20:22;;;;;;;;;;;;;;;26.36;51.54;100438.06;4867114;29;6917;-73
2023/06/29 06:22:48;;;;;;;;;;;;;;;26.41;50.95;100441.50;4862803;29;7376;-73
2023/06/29 06:25:17;;;;;;;;;;;;;;;26.42;50.99;100434.50;4850229;29;6852;-73
2023/06/29 06:27:44;;;;;;;;;;;;;;;26.45;50.79;100437.91;4829992;29;7015;-73
2023/06/29 06:30:10;;;;;;;;;;;;;;;26.50;51.24;100432.59;4829119;29;7302;-73
2023/06/29 06:32:41;;;;;;;;;;;;;;;26.58;50.80;100438.56;4827263;29;7048;-73
2023/06/29 06:35:08;;;;;;;;;;;;;;;26.67;50.90;100440.19;4843568;29;7425;-74
2023/06/29 06:37:38;;;;;;;;;;;;;;;26.76;50.93;100433.88;4860351;29;6817;-73
2023/06/29 06:40:07;;;;;;;;;;;;;;;26.86;50.52;100432.81;4845190;29;6820;-73
2023/06/29 06:42:36;;;;;;;;;;;;;;;26.96;50.53;100432.66;4860235;29;6812;-73
2023/06/29 06:45:04;;;;;;;;;;;;;;;27.04;50.32;100441.25;4844508;29;8685;-73
2023/06/29 06:47:31;;;;;;;;;;;;;;;27.12;50.31;100435.84;4860917;29;6967;-74
2023/06/29 06:49:58;;;;;;;;;;;;;;;27.20;50.09;100439.19;4843108;29;7020;-73
2023/06/29 06:52:24;;;;;;;;;;;;;;;27.28;50.18;100436.38;4844797;29;6975;-74
2023/06/29 06:54:50;;;;;;;;;;;;;;;27.38;50.04;100437.94;4844191;29;7204;-74
2023/06/29 06:57:17;;;;;;;;;;;;;;;27.50;49.65;100436.78;4826925;29;6925;-73
2023/06/29 06:59:42;;;;;;;;;;;;;;;27.62;49.58;100430.44;4844975;29;6873;-73
2023/06/29 07:02:08;;;;;;;;;;;;;;;27.74;49.05;100418.75;4827029;29;7424;-73
2023/06/29 07:04:34;;;;;;;;;;;;;;;27.93;49.13;100423.59;4842819;29;6757;-73
2023/06/29 07:06:59;;;;;;;;;;;;;;;28.14;49.07;100424.81;4827909;29;6948;-73
2023/06/29 07:09:25;;;;;;;;;;;;;;;28.36;48.98;100422.53;4842835;29;6776;-73
2023/06/29 07:11:50;;;;;;;;;;;;;;;28.61;48.65;100426.28;4844234;29;7137;-73
2023/06/29 07:14:17;;;;;;;;;;;;;;;28.81;48.64;100429.25;4861497;29;7295;-73
2023/06/29 07:16:43;;;;;;;;;;;;;;;28.98;47.59;100427.09;4846049;29;7251;-73
2023/06/29 07:19:14;;;;;;;;;;;;;;;29.09;46.65;100435.56;4827746;29;6959;-73
2023/06/29 07:21:41;;;;;;;;;;;;;;;29.13;46.88;100426.63;4842031;29;8009;-74
2023/06/29 07:24:08;;;;;;;;;;;;;;;29.14;46.33;100427.50;4842756;29;6884;-74
2023/06/29 07:26:35;;;;;;;;;;;;;;;29.11;45.95;100421.38;4859855;29;6980;-73
2023/06/29 07:29:00;;;;;;;;;;;;;;;29.11;46.29;100423.19;4844104;29;6873;-73
2023/06/29 07:31:28;;;;;;;;;;;;;;;29.13;45.50;100424.00;4846842;29;7007;-73
2023/06/29 07:33:55;;;;;;;;;;;;;;;29.15;45.28;100422.16;4863464;29;6860;-73
2023/06/29 07:36:23;;;;;;;;;;;;;;;29.18;45.12;100418.56;4843652;29;7861;-73
2023/06/29 07:38:49;;;;;;;;;;;;;;;29.23;45.36;100428.09;4859044;29;6863;-73
2023/06/29 07:41:17;;;;;;;;;;;;;;;29.28;44.79;100424.47;4847595;29;8171;-73
2023/06/29 07:43:54;;;;;;;;;;;;;;;29.32;44.75;100421.69;4847334;29;6804;-73
2023/06/29 07:46:20;;;;;;;;;;;;;;;29.39;44.86;100419.72;4861153;29;6928;-73
2023/06/29 07:48:50;;;;;;;;;;;;;;;29.48;45.21;100416.84;4847979;29;6793;-73
2023/06/29 07:51:17;;;;;;;;;;;;;;;29.65;45.12;100418.09;4868147;29;7082;-74
2023/06/29 07:53:43;;;;;;;;;;;;;;;29.81;43.98;100415.81;4868899;29;6878;-74
2023/06/29 07:56:09;;;;;;;;;;;;;;;30.00;44.21;100409.94;4853574;29;7243;-73
2023/06/29 07:58:35;;;;;;;;;;;;;;;30.18;44.13;100414.63;4851111;29;6793;-73
2023/06/29 08:01:02;;;;;;;;;;;;;;;30.31;43.74;100414.22;4874126;29;7164;-73
2023/06/29 08:03:28;;;;;;;;;;;;;;;30.41;43.48;100415.63;4854244;29;6978;-74
2023/06/29 08:05:54;;;;;;;;;;;;;;;30.47;43.49;100415.41;4868887;29;6796;-73
2023/06/29 08:08:21;;;;;;;;;;;;;;;30.51;42.86;100416.13;4857979;29;7019;-74
2023/06/29 08:10:48;;;;;;;;;;;;;;;30.48;42.70;100413.63;4854936;29;6809;-73
2023/06/29 08:13:15;;;;;;;;;;;;;;;30.44;42.38;100412.00;4875520;29;6800;-73
2023/06/29 08:15:41;;;;;;;;;;;;;;;30.42;42.28;100419.09;4878127;29;7284;-73
2023/06/29 08:18:06;;;;;;;;;;;;;;;30.38;41.94;100402.50;4860476;29;6760;-73
2023/06/29 08:20:32;;;;;;;;;;;;;;;30.35;42.14;100403.47;4860049;29;6780;-73
2023/06/29 08:22:58;;;;;;;;;;;;;;;30.33;42.03;100409.72;4856516;29;6972;-73
2023/06/29 08:25:23;;;;;;;;;;;;;;;30.40;41.95;100405.09;4857756;29;6784;-73
2023/06/29 08:27:49;;;;;;;;;;;;;;;30.55;42.78;100415.13;4857539;29;6776;-73
2023/06/29 08:30:16;;;;;;;;;;;;;;;30.75;42.60;100405.66;4857956;29;6772;-73
2023/06/29 08:32:43;;;;;;;;;;;;;;;31.02;42.46;100408.19;4875255;29;7384;-73
2023/06/29 08:35:08;;;;;;;;;;;;;;;31.31;41.44;100407.09;4844969;29;6864;-70
2023/06/29 08:37:34;;;;;;;;;;;;;;;31.53;40.89;100398.31;4843231;29;6796;-71
2023/06/29 08:40:00;;;;;;;;;;;;;;;31.75;40.69;100399.22;4843616;29;7146;-72
2023/06/29 08:42:27;;;;;;;;;;;;;;;31.90;40.32;100397.75;4842395;29;6793;-71
2023/06/29 08:44:53;;;;;;;;;;;;;;;32.08;40.46;100397.00;4854327;29;6808;-71
2023/06/29 08:47:19;;;;;;;;;;;;;;;32.47;41.04;100394.50;4840892;29;6800;-71
2023/06/29 08:49:46;;;;;;;;;;;;;;;33.05;40.45;100388.38;4846668;29;6924;-72
2023/06/29 08:52:17;;;;;;;;;;;;;;;33.64;38.75;100382.97;4843497;29;6945;-72
2023/06/29 08:54:42;;;;;;;;;;;;;;;34.08;38.22;100380.81;4839102;29;7025;-73
2023/06/29 08:57:09;;;;;;;;;;;;;;;34.44;37.66;100385.16;4842306;29;7854;-71
2023/06/29 08:59:37;;;;;;;;;;;;;;;34.66;35.71;100385.84;4844900;29;7265;-72
2023/06/29 09:02:06;;;;;;;;;;;;;;;34.71;36.08;100384.66;4854829;29;6989;-72
2023/06/29 09:04:32;;;;;;;;;;;;;;;34.89;36.45;100376.63;4852282;29;6986;-72
2023/06/29 09:06:58;;;;;;;;;;;;;;;35.16;36.03;100384.06;4843755;29;6789;-71
2023/06/29 09:09:24;;;;;;;;;;;;;;;35.56;35.45;100373.81;4840107;29;7050;-71
2023/06/29 09:11:51;;;;;;;;;;;;;;;36.00;35.23;100369.47;4847413;29;7012;-71
2023/06/29 09:14:17;;;;;;;;;;;;;;;36.37;34.19;100377.09;4859535;29;6861;-70
2023/06/29 09:17:15;;;;;;;;;;;;;;;36.49;33.78;100369.25;4859790;29;7025;-71
2023/06/29 09:19:54;;;;;;;;;;;;;;;36.26;33.40;100368.88;4849905;29;6998;-72
2023/06/29 09:22:21;;;;;;;;;;;;;;;35.94;32.44;100371.66;4857163;29;7244;-71
2023/06/29 09:24:48;;;;;;;;;;;;;;;35.62;32.51;100371.72;4857628;29;6978;-72
2023/06/29 09:27:14;;;;;;;;;;;;;;;35.42;32.77;100373.72;4844522;29;10629;-71
2023/06/29 09:29:48;;;;;;;;;;;;;;;35.38;32.94;100370.38;4847740;29;6780;-73
2023/06/29 09:32:14;;;;;;;;;;;;;;;35.38;33.12;100373.03;4854708;29;6825;-72
2023/06/29 09:34:47;;;;;;;;;;;;;;;35.35;33.27;100372.34;4855201;29;6772;-71
2023/06/29 09:37:15;;;;;;;;;;;;;;;35.12;32.57;100377.16;4856373;29;6809;-73
2023/06/29 09:39:56;;;;;;;;;;;;;;;34.75;33.41;100375.56;4843339;29;6820;-72
2023/06/29 09:42:23;;;;;;;;;;;;;;;34.35;33.26;100372.34;4843768;29;6805;-71
2023/06/29 09:44:49;;;;;;;;;;;;;;;34.00;33.09;100372.41;4858978;29;7005;-73
2023/06/29 09:47:17;;;;;;;;;;;;;;;33.71;33.81;100372.88;4861351;29;6940;-70
2023/06/29 09:49:47;;;;;;;;;;;;;;;33.56;34.13;100369.19;4856704;29;6980;-70
2023/06/29 09:52:14;;;;;;;;;;;;;;;33.39;34.09;100370.00;4842288;29;6867;-71
2023/06/29 09:54:40;;;;;;;;;;;;;;;33.27;34.38;100382.06;4838839;29;7268;-70
2023/06/29 09:57:13;;;;;;;;;;;;;;;33.08;34.48;100376.78;4856854;29;6844;-68
2023/06/29 09:59:41;;;;;;;;;;;;;;;32.89;35.07;100380.25;4830494;29;6987;-70
2023/06/29 10:02:11;;;;;;;;;;;;;;;32.78;35.45;100371.91;4849073;29;6812;-71
2023/06/29 10:04:41;;;;;;;;;;;;;;;32.72;35.36;100374.84;4856696;29;7418;-69
2023/06/29 10:07:16;;;;;;;;;;;;;;;32.70;35.77;100374.91;4858509;29;8290;-69
2023/06/29 10:09:46;;;;;;;;;;;;;;;32.78;36.40;100370.13;4846646;29;6804;-69
2023/06/29 10:12:13;;;;;;;;;;;;;;;32.94;36.09;100372.09;4846311;29;6872;-70
2023/06/29 10:14:43;;;;;;;;;;;;;;;33.09;36.13;100371.38;4842968;29;6796;-68
2023/06/29 10:17:15;;;;;;;;;;;;;;;33.25;35.55;100370.66;4843643;29;6808;-69
2023/06/29 10:19:43;;;;;;;;;;;;;;;33.41;36.22;100370.78;4853342;29;7267;-69
2023/06/29 10:22:15;;;;;;;;;;;;;;;33.63;35.54;100375.06;4839381;29;7437;-69
2023/06/29 10:24:53;;;;;;;;;;;;;;;33.91;35.00;100368.34;4840353;29;7007;-70
2023/06/29 10:27:23;;;;;;;;;;;;;;;34.13;34.48;100367.28;4861957;29;6809;-69
2023/06/29 10:29:50;;;;;;;;;;;;;;;34.27;34.63;100369.22;4838722;29;6991;-70
2023/06/29 10:32:39;;;;;;;;;;;;;;;34.34;34.30;100367.97;4840710;29;7225;-70
2023/06/29 10:35:12;;;;;;;;;;;;;;;34.36;34.18;100368.75;4841919;29;7008;-70
2023/06/29 10:37:48;;;;;;;;;;;;;;;34.33;34.14;100363.59;4859305;29;6856;-71
2023/06/29 10:40:20;;;;;;;;;;;;;;;34.19;34.04;100361.66;4859374;29;6804;-71
2023/06/29 10:42:45;;;;;;;;;;;;;;;33.95;34.52;100354.00;4863475;29;6804;-69
2023/06/29 10:45:17;;;;;;;;;;;;;;;33.72;34.37;100365.78;4844195;29;7026;-70
2023/06/29 10:47:56;;;;;;;;;;;;;;;33.47;35.05;100359.88;4846172;29;6796;-71
2023/06/29 10:50:44;;;;;;;;;;;;;;;33.17;34.99;100360.38;4839605;29;6777;-71
2023/06/29 10:53:16;;;;;;;;;;;;;;;32.87;35.12;100365.31;4854996;29;6840;-70
2023/06/29 10:55:51;;;;;;;;;;;;;;;32.62;35.22;100355.81;4843473;29;7123;-71
2023/06/29 10:58:31;;;;;;;;;;;;;;;32.41;35.50;100363.81;4839070;29;7113;-70
2023/06/29 11:00:57;;;;;;;;;;;;;;;32.29;36.08;100357.22;4835755;29;6851;-70
2023/06/29 11:03:24;;;;;;;;;;;;;;;32.23;36.32;100363.66;4843466;29;6773;-70
2023/06/29 11:05:52;;;;;;;;;;;;;;;32.20;36.19;100358.50;4841266;29;6845;-70
2023/06/29 11:08:21;;;;;;;;;;;;;;;32.16;36.06;100354.28;4861037;29;6822;-70
2023/06/29 11:10:48;;;;;;;;;;;;;;;32.06;36.02;100361.75;4844651;29;6816;-71
2023/06/29 11:13:13;;;;;;;;;;;;;;;31.90;36.37;100361.53;4846814;29;6883;-70
2023/06/29 11:15:40;;;;;;;;;;;;;;;31.75;36.48;100349.78;4848244;29;6793;-70
2023/06/29 11:18:09;;;;;;;;;;;;;;;31.62;36.81;100357.34;4857131;29;6864;-69
2023/06/29 11:20:39;;;;;;;;;;;;;;;31.54;36.94;100362.09;4867755;29;6877;-69
2023/06/29 11:23:07;;;;;;;;;;;;;;;31.49;37.20;100359.63;4847962;29;6809;-68
2023/06/29 11:25:34;;;;;;;;;;;;;;;31.45;36.93;100363.34;4865968;29;6797;-71
2023/06/29 11:28:01;;;;;;;;;;;;;;;31.38;37.26;100357.41;4845777;29;7168;-71
2023/06/29 11:30:26;;;;;;;;;;;;;;;31.30;37.21;100359.53;4845869;29;6871;-71
2023/06/29 11:32:53;;;;;;;;;;;;;;;31.18;37.01;100353.72;4843602;29;7282;-70
2023/06/29 11:35:21;;;;;;;;;;;;;;;31.03;37.07;100363.13;4843401;29;7208;-70
2023/06/29 11:38:01;;;;;;;;;;;;;;;30.90;37.60;100357.47;4859626;29;8086;-70
2023/06/29 11:40:28;;;;;;;;;;;;;;;30.77;37.80;100353.53;4852038;29;7447;-69
2023/06/29 11:42:54;;;;;;;;;;;;;;;30.64;37.79;100358.38;4844709;29;6920;-71
2023/06/29 11:45:21;;;;;;;;;;;;;;;30.57;38.23;100360.41;4826871;29;7306;-70
2023/06/29 11:47:55;;;;;;;;;;;;;;;30.53;37.81;100357.94;4843283;29;6805;-70
2023/06/29 11:50:21;;;;;;;;;;;;;;;30.52;38.65;100353.56;4857489;29;7540;-70
2023/06/29 11:52:48;;;;;;;;;;;;;;;30.58;38.50;100356.84;4856930;29;6892;-69
2023/06/29 11:55:15;;;;;;;;;;;;;;;30.67;38.52;100363.63;4860145;29;6871;-70
2023/06/29 11:57:47;;;;;;;;;;;;;;;30.78;38.56;100352.63;4846193;29;6913;-71
2023/06/29 12:00:16;;;;;;;;;;;;;;;30.85;38.04;100359.41;4842988;29;6832;-70
2023/06/29 12:02:44;;;;;;;;;;;;;;;30.90;37.80;100361.88;4845974;29;7302;-71
2023/06/29 12:05:10;;;;;;;;;;;;;;;30.92;38.03;100356.56;4845508;29;6793;-70
2023/06/29 12:07:39;;;;;;;;;;;;;;;30.94;37.81;100352.91;4828087;29;6973;-70
2023/06/29 12:10:12;;;;;;;;;;;;;;;30.97;37.51;100354.56;4847873;29;6991;-69
2023/06/29 12:12:42;;;;;;;;;;;;;;;30.97;37.12;100355.44;4844272;29;6801;-70
2023/06/29 12:15:27;;;;;;;;;;;;;;;30.98;36.93;100349.22;4844741;29;6792;-70
2023/06/29 12:18:12;;;;;;;;;;;;;;;31.02;37.39;100344.69;4859861;29;6792;-70
2023/06/29 12:20:42;;;;;;;;;;;;;;;31.10;37.58;100336.44;4844038;29;6816;-71
2023/06/29 12:23:10;;;;;;;;;;;;;;;31.27;37.44;100339.31;4833761;29;7233;-71
2023/06/29 12:25:49;;;;;;;;;;;;;;;31.50;36.81;100339.34;4845449;29;6808;-70
2023/06/29 12:28:16;;;;;;;;;;;;;;;31.72;37.09;100337.50;4847893;29;6822;-71
2023/06/29 12:30:42;;;;;;;;;;;;;;;31.94;36.32;100336.63;4839387;29;6820;-69
2023/06/29 12:33:11;;;;;;;;;;;;;;;32.08;36.12;100337.84;4842330;29;6788;-70
2023/06/29 12:35:37;;;;;;;;;;;;;;;32.20;36.14;100339.94;4863821;29;6875;-70
2023/06/29 12:38:04;;;;;;;;;;;;;;;32.36;36.20;100341.94;4846748;29;6864;-69
2023/06/29 12:40:30;;;;;;;;;;;;;;;32.56;36.14;100338.41;4860974;29;6848;-70
2023/06/29 12:42:56;;;;;;;;;;;;;;;32.83;35.90;100340.72;4842014;29;6817;-71
2023/06/29 12:45:22;;;;;;;;;;;;;;;33.13;35.78;100328.75;4845888;29;7131;-72
2023/06/29 12:47:48;;;;;;;;;;;;;;;33.38;35.00;100329.28;4843240;29;6789;-69
2023/06/29 12:50:14;;;;;;;;;;;;;;;33.48;34.57;100329.72;4841747;29;6773;-70